Aérodrome :
LOGIN :

S'inscrire | Disclaimer

   EN    FR    IT 

 










Légende :    VFR   VFR Marginal   IFR   IFR Intensif   IFR Très Intensif
Visi : 
Plafond : 
>= 8 km
>= 3000ft
5 à 8 km
1000 à 3000 ft
1500m à 5 km
500 à 1000 ft
800 à 1500m
200 à 500 ft
< 800m
< 200 ft
Symboles :   Orages  Brouillard  Fortes neiges  Fortes précipitations  Vent > 20 kt
SIGMETs :   Divers  Orages  Givrage  Turbulence  Onde Orograph.  Cendres Volcan.






- Altitude de l'aérodrome : 461 ft
- Code IATA : WIE


ETOU - Wiesbaden Army

DERNIER METAR :
  • 021956Z AUTO 33008KT 9999 CLR 08/M02 A2987 RMK AO2 SLP121 T00821019 $

METARs EXPIRÉS :
  • 021856Z AUTO 35006KT 9999 CLR 09/M01 A2985 RMK AO2 SLP115 T00881011 $
  • 021756Z AUTO 34009KT 9999 CLR 11/M02 A2983 RMK AO2 SLP108 T01091022 10145 20109 55001 $
  • 021656Z AUTO 29008KT 9999 CLR 14/M05 A2982 RMK AO2 SLP104 T01351047

TAF TAF ETOU
Valide du 02 à 12h jusqu'au 03 à 18h UTC


021200Z 0212/0318 29009KT 9999 SCT030 QNH2991INS
BECMG 0303/0304 25005KT 9999 BKN020 QNH2993INS
TEMPO 0305/0307 9000 -SHRA TX12/0216Z TN05/0302Z



MET'MAP, la Météo Aéronautique d'un coup d'oeil ! - Copyright ORBIFLY Décembre 2007 - Disclaimer

ORBIFLY MET'MAP TEAM :

Programmation & Développement : Alexandra Zaïnal
Sur une idée originale de : Baudouin d'Aumeries
Assistance à la programmation : Marc-Olivier Méhu
Soutien technique & logistique : Manuel Goepfert

Contact : metmap@orbifly.com




SOURCES & CREDITS :

   NOAA